Time;durP1;ratioP1;P1;durP2;ratioP2;P2;SDS_P1;SDS_P2;PMS_P1;PMS_P2;Temp;Humidity;BMP_temperature;BMP_pressure;BME280_temperature;BME280_humidity;BME280_pressure;Samples;Min_cycle;Max_cycle;Signal;HPM_P1;HPM_P2
2023/03/26 00:01:14;;;;;;;;;;;;;;;4.30;69.18;99152.06;5006027;28;4144;-78
2023/03/26 00:03:40;;;;;;;;;;;;;;;4.31;69.12;99156.34;4992777;28;4961;-80
2023/03/26 00:06:07;;;;;;;;;;;;;;;4.32;69.02;99158.00;5001615;28;5216;-79
2023/03/26 00:08:34;;;;;;;;;;;;;;;4.37;68.78;99159.19;5006569;28;4134;-78
2023/03/26 00:11:00;;;;;;;;;;;;;;;4.33;69.01;99162.28;4987876;28;4271;-78
2023/03/26 00:13:27;;;;;;;;;;;;;;;4.32;69.21;99160.66;5004940;28;4253;-78
2023/03/26 00:15:53;;;;;;;;;;;;;;;4.32;68.81;99168.66;4989268;28;4234;-79
2023/03/26 00:18:20;;;;;;;;;;;;;;;4.29;69.04;99150.44;5006882;28;4201;-78
2023/03/26 00:20:46;;;;;;;;;;;;;;;4.32;69.32;99157.16;4989650;28;4343;-79
2023/03/26 00:23:13;;;;;;;;;;;;;;;4.33;68.89;99156.16;5007259;28;4247;-79
2023/03/26 00:25:41;;;;;;;;;;;;;;;4.36;69.00;99152.25;4988293;28;4426;-79
2023/03/26 00:28:07;;;;;;;;;;;;;;;4.37;68.68;99159.19;4985464;28;4899;-78
2023/03/26 00:30:35;;;;;;;;;;;;;;;4.35;68.72;99161.25;5002330;28;4262;-80
2023/03/26 00:33:01;;;;;;;;;;;;;;;4.32;69.01;99159.81;4989725;28;4130;-79
2023/03/26 00:35:29;;;;;;;;;;;;;;;4.27;68.80;99155.16;4984266;28;4296;-80
2023/03/26 00:37:57;;;;;;;;;;;;;;;4.28;69.17;99151.44;5002989;28;4898;-80
2023/03/26 00:40:24;;;;;;;;;;;;;;;4.32;68.87;99158.00;4993519;28;4145;-78
2023/03/26 00:42:51;;;;;;;;;;;;;;;4.28;68.96;99156.78;5008688;28;4032;-81
2023/03/26 00:45:20;;;;;;;;;;;;;;;4.27;68.99;99155.16;4996262;28;4771;-79
2023/03/26 00:47:46;;;;;;;;;;;;;;;4.33;68.97;99162.28;5004998;28;4255;-77
2023/03/26 00:50:14;;;;;;;;;;;;;;;4.32;68.68;99162.47;5009455;28;4027;-78
2023/03/26 00:52:40;;;;;;;;;;;;;;;4.33;69.00;99166.81;5023920;28;4135;-80
2023/03/26 00:55:07;;;;;;;;;;;;;;;4.37;68.56;99161.88;5016069;28;4302;-78
2023/03/26 00:57:36;;;;;;;;;;;;;;;4.27;68.92;99163.16;4997176;28;4225;-80
2023/03/26 01:00:14;;;;;;;;;;;;;;;4.27;68.90;99168.47;4992534;28;4114;-78
2023/03/26 01:02:42;;;;;;;;;;;;;;;4.24;68.78;99176.91;5010312;28;4322;-79
2023/03/26 01:05:09;;;;;;;;;;;;;;;4.31;68.91;99183.00;5008301;28;4826;-79
2023/03/26 01:07:35;;;;;;;;;;;;;;;4.26;69.00;99188.13;4991818;28;4614;-78
2023/03/26 01:10:02;;;;;;;;;;;;;;;4.29;68.69;99189.56;5003708;28;4205;-80
2023/03/26 01:12:30;;;;;;;;;;;;;;;4.25;68.84;99193.69;5009211;28;4512;-80
2023/03/26 01:14:59;;;;;;;;;;;;;;;4.28;68.53;99199.41;5019645;28;4887;-79
2023/03/26 01:17:32;;;;;;;;;;;;;;;4.30;68.56;99188.56;5005231;28;4507;-80
2023/03/26 01:20:04;;;;;;;;;;;;;;;4.23;68.93;99188.56;5016839;28;4193;-79
2023/03/26 01:22:31;;;;;;;;;;;;;;;4.19;69.03;99195.34;4973453;28;4024;-80
2023/03/26 01:24:58;;;;;;;;;;;;;;;4.26;68.67;99188.13;5009822;28;4124;-79
2023/03/26 01:27:24;;;;;;;;;;;;;;;4.28;68.66;99191.41;5008708;28;3844;-79
2023/03/26 01:29:51;;;;;;;;;;;;;;;4.28;68.74;99185.28;5007915;28;4816;-79
2023/03/26 01:32:18;;;;;;;;;;;;;;;4.26;68.62;99182.00;4988733;28;4797;-78
2023/03/26 01:34:45;;;;;;;;;;;;;;;4.26;68.78;99187.31;5011754;28;4076;-79
2023/03/26 01:37:13;;;;;;;;;;;;;;;4.31;68.56;99187.53;5013654;28;4096;-78
2023/03/26 01:39:39;;;;;;;;;;;;;;;4.25;68.88;99194.50;5011256;28;4161;-80
2023/03/26 01:42:07;;;;;;;;;;;;;;;4.28;68.66;99198.59;5008727;28;3982;-79
2023/03/26 01:44:33;;;;;;;;;;;;;;;4.27;68.65;99196.97;5011272;28;3946;-79
2023/03/26 01:47:00;;;;;;;;;;;;;;;4.27;68.43;99196.97;5010896;28;4106;-78
2023/03/26 01:49:26;;;;;;;;;;;;;;;4.28;68.38;99199.41;5007611;28;5381;-80
2023/03/26 01:51:54;;;;;;;;;;;;;;;4.35;68.35;99203.91;5013880;28;4979;-80
2023/03/26 01:54:20;;;;;;;;;;;;;;;4.29;68.46;99209.06;4990019;28;4493;-79
2023/03/26 01:56:47;;;;;;;;;;;;;;;4.21;68.54;99213.81;5012528;28;4915;-79
2023/03/26 01:59:13;;;;;;;;;;;;;;;4.21;68.77;99219.97;5010400;28;4540;-80
2023/03/26 02:01:43;;;;;;;;;;;;;;;4.29;68.43;99221.56;5007696;28;4622;-77
2023/03/26 02:04:10;;;;;;;;;;;;;;;4.31;68.46;99224.84;5011009;28;4072;-80
2023/03/26 02:06:37;;;;;;;;;;;;;;;4.26;68.50;99240.63;5005688;28;3955;-79
2023/03/26 02:09:03;;;;;;;;;;;;;;;4.27;68.46;99231.63;5012741;28;4653;-79
2023/03/26 02:11:32;;;;;;;;;;;;;;;4.27;68.48;99228.97;4992001;28;4415;-79
2023/03/26 02:13:58;;;;;;;;;;;;;;;4.24;68.64;99226.72;4990885;28;4163;-78
2023/03/26 02:16:25;;;;;;;;;;;;;;;4.25;68.39;99221.16;5009987;28;3889;-78
2023/03/26 02:18:54;;;;;;;;;;;;;;;4.30;68.50;99226.69;5011925;28;4066;-78
2023/03/26 02:21:21;;;;;;;;;;;;;;;4.19;68.64;99213.19;5018962;28;4377;-79
2023/03/26 02:23:47;;;;;;;;;;;;;;;4.28;68.56;99218.06;5017154;28;4283;-79
2023/03/26 02:26:14;;;;;;;;;;;;;;;4.27;68.44;99227.13;5007526;28;4294;-79
2023/03/26 02:28:41;;;;;;;;;;;;;;;4.22;68.42;99231.44;5024030;28;4064;-79
2023/03/26 02:31:08;;;;;;;;;;;;;;;4.24;68.59;99232.06;5016794;28;4801;-77
2023/03/26 02:33:35;;;;;;;;;;;;;;;4.22;68.44;99240.25;5015507;28;4636;-79
2023/03/26 02:36:01;;;;;;;;;;;;;;;4.27;68.34;99240.44;5026357;28;4615;-79
2023/03/26 02:38:28;;;;;;;;;;;;;;;4.23;68.28;99235.72;5027458;28;4335;-79
2023/03/26 02:40:54;;;;;;;;;;;;;;;4.32;68.18;99242.47;5028716;28;4770;-80
2023/03/26 02:43:21;;;;;;;;;;;;;;;4.27;68.28;99244.97;5028107;28;4674;-78
2023/03/26 02:45:48;;;;;;;;;;;;;;;4.21;68.32;99251.13;5017929;28;3926;-79
2023/03/26 02:48:15;;;;;;;;;;;;;;;4.21;68.73;99245.78;5003727;28;5021;-78
2023/03/26 02:50:41;;;;;;;;;;;;;;;4.29;68.28;99246.38;5006564;28;4597;-80
2023/03/26 02:53:08;;;;;;;;;;;;;;;4.26;68.17;99243.31;5006186;28;4902;-80
2023/03/26 02:55:34;;;;;;;;;;;;;;;4.26;68.25;99244.13;4993657;28;4775;-80
2023/03/26 02:58:01;;;;;;;;;;;;;;;4.22;68.44;99240.25;5012044;28;4049;-80
2023/03/26 03:00:27;;;;;;;;;;;;;;;4.17;68.48;99237.38;5023433;28;4195;-79
2023/03/26 03:02:56;;;;;;;;;;;;;;;4.21;68.21;99237.81;5026952;28;4270;-78
2023/03/26 03:05:25;;;;;;;;;;;;;;;4.18;68.48;99235.56;5010002;28;4266;-79
2023/03/26 03:07:57;;;;;;;;;;;;;;;4.28;68.02;99227.91;5010532;28;4087;-80
2023/03/26 03:10:23;;;;;;;;;;;;;;;4.21;68.21;99232.47;4998990;28;4482;-79
2023/03/26 03:12:50;;;;;;;;;;;;;;;4.25;68.40;99234.50;5007401;28;4098;-79
2023/03/26 03:15:17;;;;;;;;;;;;;;;4.24;68.08;99242.72;5020899;28;4768;-79
2023/03/26 03:17:43;;;;;;;;;;;;;;;4.25;68.16;99247.00;5025097;28;4640;-78
2023/03/26 03:20:11;;;;;;;;;;;;;;;4.29;67.96;99250.88;5001641;28;4868;-79
2023/03/26 03:22:37;;;;;;;;;;;;;;;4.28;68.23;99251.91;5023842;28;4124;-79
2023/03/26 03:25:04;;;;;;;;;;;;;;;4.25;67.99;99258.47;5024148;28;4827;-78
2023/03/26 03:27:31;;;;;;;;;;;;;;;4.32;67.92;99256.63;5023557;28;3943;-80
2023/03/26 03:29:57;;;;;;;;;;;;;;;4.33;68.07;99252.09;5007130;28;4824;-77
2023/03/26 03:32:24;;;;;;;;;;;;;;;4.33;67.89;99254.78;5024554;28;4670;-80
2023/03/26 03:34:51;;;;;;;;;;;;;;;4.28;68.16;99258.06;4989827;28;4752;-80
2023/03/26 03:37:17;;;;;;;;;;;;;;;4.33;67.82;99276.09;4987969;28;4117;-79
2023/03/26 03:39:44;;;;;;;;;;;;;;;4.23;68.03;99287.19;5009956;28;4463;-79
2023/03/26 03:42:11;;;;;;;;;;;;;;;4.28;67.89;99284.72;4994735;28;4881;-79
2023/03/26 03:44:37;;;;;;;;;;;;;;;4.31;67.87;99281.63;5006511;28;4896;-79
2023/03/26 03:47:04;;;;;;;;;;;;;;;4.30;67.84;99277.34;5008236;28;4595;-79
2023/03/26 03:49:31;;;;;;;;;;;;;;;4.40;67.67;99268.06;4987984;28;4676;-79
2023/03/26 03:51:58;;;;;;;;;;;;;;;4.43;67.46;99257.78;5005451;28;4711;-77
2023/03/26 03:54:24;;;;;;;;;;;;;;;4.34;67.91;99256.41;5000900;28;4970;-79
2023/03/26 03:56:51;;;;;;;;;;;;;;;4.34;67.59;99256.41;4985018;28;4112;-79
2023/03/26 03:59:17;;;;;;;;;;;;;;;4.35;67.76;99267.88;5003763;28;4290;-80
2023/03/26 04:01:47;;;;;;;;;;;;;;;4.30;67.61;99266.66;5016738;28;4258;-79
2023/03/26 04:04:14;;;;;;;;;;;;;;;4.36;67.71;99273.00;5009319;28;4081;-79
2023/03/26 04:06:40;;;;;;;;;;;;;;;4.35;67.83;99278.53;5004814;28;4011;-80
2023/03/26 04:09:08;;;;;;;;;;;;;;;4.32;67.97;99277.09;5008315;28;4034;-79
2023/03/26 04:11:35;;;;;;;;;;;;;;;4.34;67.65;99283.06;4991900;28;4185;-78
2023/03/26 04:14:22;;;;;;;;;;;;;;;4.30;67.95;99284.53;5008119;28;4104;-78
2023/03/26 04:16:49;;;;;;;;;;;;;;;4.38;67.81;99286.94;5005475;28;5187;-79
2023/03/26 04:19:23;;;;;;;;;;;;;;;4.41;67.75;99291.03;5006109;28;4060;-78
2023/03/26 04:21:50;;;;;;;;;;;;;;;4.37;67.72;99295.97;5011736;28;4224;-78
2023/03/26 04:24:37;;;;;;;;;;;;;;;4.37;67.70;99301.28;5002981;28;4637;-79
2023/03/26 04:27:26;;;;;;;;;;;;;;;4.38;67.60;99294.13;5012144;28;3957;-79
2023/03/26 04:29:52;;;;;;;;;;;;;;;4.43;67.61;99305.78;5010729;28;3984;-78
2023/03/26 04:32:19;;;;;;;;;;;;;;;4.34;67.67;99307.06;5018176;28;4644;-80
2023/03/26 04:35:06;;;;;;;;;;;;;;;4.38;67.64;99302.13;5021960;28;3932;-78
2023/03/26 04:37:53;;;;;;;;;;;;;;;4.40;67.72;99305.41;5014686;28;4742;-79
2023/03/26 04:40:41;;;;;;;;;;;;;;;4.38;67.47;99299.44;5010511;28;4706;-81
2023/03/26 04:43:29;;;;;;;;;;;;;;;4.31;67.74;99305.63;5011563;28;4984;-79
2023/03/26 04:46:17;;;;;;;;;;;;;;;4.33;67.82;99310.75;5010100;28;4775;-79
2023/03/26 04:49:03;;;;;;;;;;;;;;;4.32;68.11;99303.75;5015665;28;3994;-78
2023/03/26 04:51:40;;;;;;;;;;;;;;;4.35;68.04;99306.00;5003095;28;4253;-81
2023/03/26 04:54:12;;;;;;;;;;;;;;;4.39;67.43;99304.59;4988892;28;4192;-78
2023/03/26 04:56:42;;;;;;;;;;;;;;;4.33;67.81;99310.75;5002925;28;4118;-78
2023/03/26 04:59:08;;;;;;;;;;;;;;;4.40;67.81;99311.53;5005645;28;4582;-78
2023/03/26 05:01:36;;;;;;;;;;;;;;;4.44;67.55;99319.94;5009599;28;4798;-81
2023/03/26 05:04:03;;;;;;;;;;;;;;;4.43;67.51;99320.97;4981837;28;3918;-80
2023/03/26 05:06:33;;;;;;;;;;;;;;;4.44;67.46;99331.44;4995067;28;4123;-80
2023/03/26 05:09:00;;;;;;;;;;;;;;;4.50;67.27;99329.75;4989086;28;4713;-79
2023/03/26 05:11:27;;;;;;;;;;;;;;;4.39;67.66;99328.56;5019639;28;4211;-81
2023/03/26 05:13:53;;;;;;;;;;;;;;;4.39;67.86;99339.25;5008185;28;4064;-79
2023/03/26 05:16:20;;;;;;;;;;;;;;;4.39;67.85;99335.75;5019786;28;4715;-79
2023/03/26 05:18:47;;;;;;;;;;;;;;;4.37;67.85;99330.63;5012687;28;4075;-78
2023/03/26 05:21:13;;;;;;;;;;;;;;;4.36;67.73;99328.19;5004511;28;4949;-79
2023/03/26 05:23:40;;;;;;;;;;;;;;;4.40;67.74;99332.06;5003847;28;4881;-79
2023/03/26 05:26:07;;;;;;;;;;;;;;;4.44;67.37;99343.94;5010079;28;3997;-79
2023/03/26 05:28:33;;;;;;;;;;;;;;;4.41;67.48;99333.69;5000632;28;4351;-79
2023/03/26 05:31:01;;;;;;;;;;;;;;;4.35;67.86;99339.84;5016337;28;4045;-78
2023/03/26 05:33:28;;;;;;;;;;;;;;;4.36;67.73;99338.84;5016643;28;4950;-77
2023/03/26 05:35:55;;;;;;;;;;;;;;;4.38;67.64;99337.59;5006574;28;4237;-80
2023/03/26 05:38:22;;;;;;;;;;;;;;;4.39;67.70;99333.91;5002484;28;4232;-79
2023/03/26 05:40:48;;;;;;;;;;;;;;;4.39;67.68;99327.75;4999684;28;4900;-79
2023/03/26 05:43:15;;;;;;;;;;;;;;;4.36;67.88;99337.00;5008752;28;4848;-80
2023/03/26 05:45:41;;;;;;;;;;;;;;;4.47;67.56;99335.50;5004152;28;4892;-78
2023/03/26 05:48:08;;;;;;;;;;;;;;;4.41;67.56;99344.34;5005618;28;4034;-80
2023/03/26 05:50:34;;;;;;;;;;;;;;;4.37;67.68;99333.28;5011925;28;4655;-78
2023/03/26 05:53:01;;;;;;;;;;;;;;;4.38;67.63;99337.59;5027120;28;4385;-79
2023/03/26 05:55:28;;;;;;;;;;;;;;;4.38;67.92;99337.59;5010324;28;4208;-79
2023/03/26 05:57:54;;;;;;;;;;;;;;;4.41;67.47;99345.19;5012556;28;4138;-79
2023/03/26 06:00:23;;;;;;;;;;;;;;;4.42;67.53;99354.00;5028297;28;3890;-79
2023/03/26 06:02:49;;;;;;;;;;;;;;;4.40;67.76;99348.88;5028421;28;4109;-79
2023/03/26 06:05:16;;;;;;;;;;;;;;;4.36;67.78;99352.97;5011796;28;4161;-80
2023/03/26 06:07:42;;;;;;;;;;;;;;;4.40;67.56;99350.72;5026984;28;4120;-77
2023/03/26 06:10:09;;;;;;;;;;;;;;;4.38;67.65;99352.75;5013426;28;4743;-79
2023/03/26 06:12:36;;;;;;;;;;;;;;;4.41;67.69;99360.34;5030952;28;4416;-79
2023/03/26 06:17:45;;;;;;;;;;;;;;;4.38;67.83;99364.25;5172454;23;4674;-82
2023/03/26 06:20:12;;;;;;;;;;;;;;;4.35;67.80;99371.84;5022694;28;4944;-82
2023/03/26 06:22:38;;;;;;;;;;;;;;;4.42;67.63;99368.16;5022968;28;4906;-81
2023/03/26 06:25:05;;;;;;;;;;;;;;;4.43;67.61;99371.63;5022794;28;4712;-82
2023/03/26 06:27:31;;;;;;;;;;;;;;;4.39;67.70;99368.56;5021597;28;4605;-83
2023/03/26 06:29:58;;;;;;;;;;;;;;;4.37;67.53;99369.78;5019700;28;4535;-81
2023/03/26 06:32:25;;;;;;;;;;;;;;;4.39;67.52;99373.91;5019381;28;4599;-82
2023/03/26 06:34:51;;;;;;;;;;;;;;;4.39;67.55;99371.22;5006122;28;4706;-82
2023/03/26 06:37:18;;;;;;;;;;;;;;;4.43;67.39;99375.09;5022181;28;4995;-82
2023/03/26 06:39:44;;;;;;;;;;;;;;;4.44;67.61;99373.25;5022194;28;4617;-81
2023/03/26 06:42:11;;;;;;;;;;;;;;;4.43;67.63;99382.28;4997507;28;4465;-83
2023/03/26 06:44:38;;;;;;;;;;;;;;;4.42;67.33;99384.13;4986952;28;4801;-81
2023/03/26 06:47:05;;;;;;;;;;;;;;;4.43;67.54;99384.97;5004045;28;4513;-81
2023/03/26 06:49:33;;;;;;;;;;;;;;;4.47;67.32;99380.84;4984729;28;4899;-81
2023/03/26 06:52:14;;;;;;;;;;;;;;;4.47;67.40;99388.84;4993075;28;4592;-81
2023/03/26 06:54:41;;;;;;;;;;;;;;;4.44;67.53;99390.09;4995274;28;4611;-81
2023/03/26 06:57:08;;;;;;;;;;;;;;;4.46;67.36;99385.34;5018817;28;5005;-80
2023/03/26 06:59:35;;;;;;;;;;;;;;;4.55;66.96;99393.94;5015961;28;4536;-81
2023/03/26 07:02:01;;;;;;;;;;;;;;;4.46;67.56;99389.88;5000953;28;4563;-81
2023/03/26 07:04:28;;;;;;;;;;;;;;;4.45;67.56;99396.25;5010389;28;4523;-82
2023/03/26 07:06:54;;;;;;;;;;;;;;;4.51;67.15;99403.41;5011068;28;4653;-83
2023/03/26 07:09:21;;;;;;;;;;;;;;;4.50;67.50;99397.25;4994512;28;4619;-83
2023/03/26 07:11:48;;;;;;;;;;;;;;;4.62;67.02;99401.94;4995830;28;4745;-80
2023/03/26 07:14:15;;;;;;;;;;;;;;;4.55;67.30;99408.09;4994143;28;4624;-82
2023/03/26 07:16:43;;;;;;;;;;;;;;;4.56;67.09;99408.94;4997617;28;4664;-81
2023/03/26 07:19:10;;;;;;;;;;;;;;;4.66;66.72;99409.31;4998144;28;4539;-81
2023/03/26 07:21:37;;;;;;;;;;;;;;;4.70;66.51;99415.03;5007119;28;4429;-81
2023/03/26 07:24:04;;;;;;;;;;;;;;;4.54;67.21;99422.47;4994168;28;4765;-81
2023/03/26 07:26:31;;;;;;;;;;;;;;;4.61;66.96;99411.78;5014148;28;4703;-80
2023/03/26 07:28:57;;;;;;;;;;;;;;;4.64;66.92;99422.03;5017077;28;4734;-82
2023/03/26 07:31:25;;;;;;;;;;;;;;;4.62;66.98;99425.94;5002149;28;4758;-83
2023/03/26 07:33:52;;;;;;;;;;;;;;;4.58;67.06;99420.19;5008412;28;4748;-83
2023/03/26 07:36:19;;;;;;;;;;;;;;;4.69;66.60;99427.56;4993347;28;4726;-83
2023/03/26 07:38:45;;;;;;;;;;;;;;;4.78;66.29;99422.84;5003491;28;4707;-82
2023/03/26 07:41:12;;;;;;;;;;;;;;;4.70;66.75;99420.38;5020934;28;4776;-82
2023/03/26 07:43:39;;;;;;;;;;;;;;;4.72;66.51;99423.66;4991490;28;4687;-82
2023/03/26 07:46:05;;;;;;;;;;;;;;;4.70;66.56;99428.38;5004110;28;4574;-82
2023/03/26 07:48:32;;;;;;;;;;;;;;;4.74;66.66;99430.44;5011132;28;4443;-83
2023/03/26 07:50:59;;;;;;;;;;;;;;;4.68;66.67;99433.13;4991638;28;4822;-82
2023/03/26 07:53:26;;;;;;;;;;;;;;;4.78;66.56;99431.66;5003130;28;4381;-82
2023/03/26 07:55:52;;;;;;;;;;;;;;;4.69;66.66;99430.25;5006533;28;4272;-82
2023/03/26 07:58:19;;;;;;;;;;;;;;;4.78;66.57;99433.50;5007451;28;4172;-82
2023/03/26 08:00:46;;;;;;;;;;;;;;;4.72;66.55;99432.47;4993941;28;4339;-82
2023/03/26 08:03:12;;;;;;;;;;;;;;;4.77;66.35;99430.03;4993532;28;4394;-82
2023/03/26 08:05:38;;;;;;;;;;;;;;;4.78;66.59;99438.84;5006459;28;4274;-82
2023/03/26 08:08:05;;;;;;;;;;;;;;;4.65;66.81;99437.03;5005514;28;4655;-82
2023/03/26 08:10:32;;;;;;;;;;;;;;;4.66;66.90;99432.50;5008286;28;4584;-81
2023/03/26 08:12:58;;;;;;;;;;;;;;;4.68;66.86;99441.13;5005926;28;4373;-81
2023/03/26 08:15:27;;;;;;;;;;;;;;;4.80;66.44;99439.47;5011544;28;4508;-82
2023/03/26 08:17:54;;;;;;;;;;;;;;;4.74;66.56;99441.09;5008817;28;4919;-82
2023/03/26 08:20:21;;;;;;;;;;;;;;;4.71;66.63;99448.72;5008671;28;4481;-82
2023/03/26 08:22:49;;;;;;;;;;;;;;;4.68;66.93;99446.47;5005268;28;4856;-82
2023/03/26 08:25:16;;;;;;;;;;;;;;;4.66;67.03;99449.31;5007958;28;4539;-82
2023/03/26 08:27:43;;;;;;;;;;;;;;;4.68;66.84;99449.13;5012188;28;4808;-82
2023/03/26 08:30:10;;;;;;;;;;;;;;;4.81;66.25;99440.28;5006593;28;4366;-82
2023/03/26 08:32:36;;;;;;;;;;;;;;;4.67;66.73;99448.28;5002249;28;4485;-83
2023/03/26 08:35:03;;;;;;;;;;;;;;;4.67;66.99;99453.63;5009606;28;4696;-82
2023/03/26 08:37:30;;;;;;;;;;;;;;;4.68;66.91;99454.47;5019867;28;4883;-82
2023/03/26 08:39:57;;;;;;;;;;;;;;;4.68;67.04;99460.63;5015946;28;4462;-82
2023/03/26 08:42:23;;;;;;;;;;;;;;;4.64;67.14;99455.88;5011913;28;4820;-82
2023/03/26 08:44:50;;;;;;;;;;;;;;;4.72;66.86;99461.00;4990805;28;4784;-82
2023/03/26 08:47:16;;;;;;;;;;;;;;;4.72;66.84;99451.16;5001278;28;4737;-82
2023/03/26 08:49:43;;;;;;;;;;;;;;;4.71;66.81;99454.88;5011039;28;4752;-82
2023/03/26 08:52:10;;;;;;;;;;;;;;;4.71;66.82;99451.38;5006316;28;4299;-82
2023/03/26 08:54:37;;;;;;;;;;;;;;;4.64;67.04;99451.38;5006490;28;4736;-81
2023/03/26 08:57:03;;;;;;;;;;;;;;;4.67;67.09;99456.28;4998992;28;4441;-83
2023/03/26 08:59:30;;;;;;;;;;;;;;;4.75;66.76;99461.41;5007795;28;4702;-82
2023/03/26 09:01:57;;;;;;;;;;;;;;;4.67;66.87;99458.97;5016325;28;4838;-82
2023/03/26 09:04:23;;;;;;;;;;;;;;;4.68;66.98;99457.94;5010095;28;4425;-81
2023/03/26 09:06:50;;;;;;;;;;;;;;;4.78;66.74;99457.50;4997991;28;4556;-82
2023/03/26 09:09:17;;;;;;;;;;;;;;;4.78;66.55;99463.66;4999360;28;4590;-82
2023/03/26 09:11:45;;;;;;;;;;;;;;;4.83;66.52;99457.72;5003365;28;4611;-81
2023/03/26 09:14:12;;;;;;;;;;;;;;;4.78;66.70;99463.66;5016194;28;4512;-81
2023/03/26 09:16:41;;;;;;;;;;;;;;;4.78;66.64;99468.19;5001499;28;4576;-81
2023/03/26 09:19:08;;;;;;;;;;;;;;;4.81;66.61;99469.63;4995096;28;4426;-81
2023/03/26 09:21:34;;;;;;;;;;;;;;;4.78;66.78;99465.50;4996143;28;4466;-82
2023/03/26 09:24:01;;;;;;;;;;;;;;;4.77;66.79;99469.22;4996616;28;4402;-82
2023/03/26 09:26:27;;;;;;;;;;;;;;;4.81;66.88;99481.09;4994108;28;4592;-82
2023/03/26 09:28:54;;;;;;;;;;;;;;;4.82;66.60;99473.91;4992365;28;4510;-81
2023/03/26 09:31:20;;;;;;;;;;;;;;;4.84;66.56;99466.53;4992377;28;4537;-82
2023/03/26 09:33:47;;;;;;;;;;;;;;;4.82;66.59;99455.25;4993845;28;4822;-82
2023/03/26 09:36:14;;;;;;;;;;;;;;;4.77;66.88;99461.22;4996387;28;4810;-82
2023/03/26 09:38:40;;;;;;;;;;;;;;;4.74;66.90;99464.31;4993225;28;4342;-81
2023/03/26 09:41:07;;;;;;;;;;;;;;;4.74;67.11;99461.63;4978513;28;4822;-82
2023/03/26 09:43:35;;;;;;;;;;;;;;;4.76;66.97;99460.41;5006394;28;4317;-82
2023/03/26 09:46:01;;;;;;;;;;;;;;;4.78;66.94;99463.66;4981690;28;4861;-83
2023/03/26 09:48:28;;;;;;;;;;;;;;;4.77;66.98;99463.88;4992952;28;4165;-82
2023/03/26 09:50:55;;;;;;;;;;;;;;;4.82;66.90;99465.91;4982784;28;4784;-81
2023/03/26 09:53:22;;;;;;;;;;;;;;;4.78;67.08;99460.19;4957226;28;4755;-82
2023/03/26 09:55:49;;;;;;;;;;;;;;;4.78;67.00;99465.50;4981316;28;4644;-82
2023/03/26 09:58:16;;;;;;;;;;;;;;;4.76;67.14;99471.06;4978874;28;4268;-83
2023/03/26 10:00:42;;;;;;;;;;;;;;;4.80;67.13;99468.81;4988057;28;4735;-82
2023/03/26 10:03:09;;;;;;;;;;;;;;;4.77;67.20;99470.03;5009750;28;4523;-83
2023/03/26 10:05:37;;;;;;;;;;;;;;;4.80;67.19;99474.13;5006748;28;4592;-83
2023/03/26 10:08:05;;;;;;;;;;;;;;;4.82;66.97;99465.91;4992130;28;4751;-83
2023/03/26 10:10:31;;;;;;;;;;;;;;;4.83;67.09;99473.72;4996458;28;4404;-83
2023/03/26 10:12:58;;;;;;;;;;;;;;;4.90;66.79;99479.03;4997786;28;4639;-83
2023/03/26 10:15:24;;;;;;;;;;;;;;;4.89;66.83;99480.06;5010063;28;4772;-84
2023/03/26 10:17:51;;;;;;;;;;;;;;;4.84;67.10;99477.19;5009746;28;4430;-84
2023/03/26 10:20:18;;;;;;;;;;;;;;;4.83;67.27;99483.56;4999066;28;4488;-84
2023/03/26 10:22:45;;;;;;;;;;;;;;;4.80;67.38;99479.47;5000589;28;4390;-82
2023/03/26 10:25:11;;;;;;;;;;;;;;;4.84;67.34;99488.69;5003275;28;4797;-83
2023/03/26 10:27:38;;;;;;;;;;;;;;;4.89;67.10;99482.75;5005939;28;4426;-84
2023/03/26 10:30:04;;;;;;;;;;;;;;;4.90;67.10;99493.19;4999517;28;4839;-83
2023/03/26 10:32:31;;;;;;;;;;;;;;;4.89;67.27;99496.09;5017101;28;4437;-82
2023/03/26 10:34:57;;;;;;;;;;;;;;;4.89;67.22;99494.22;5005208;28;4284;-81
2023/03/26 10:37:24;;;;;;;;;;;;;;;4.88;67.16;99492.59;5005151;28;4935;-83
2023/03/26 10:39:50;;;;;;;;;;;;;;;4.94;67.05;99499.78;5020056;28;4428;-82
2023/03/26 10:42:17;;;;;;;;;;;;;;;4.87;67.39;99498.94;4998615;28;4380;-84
2023/03/26 10:44:44;;;;;;;;;;;;;;;4.91;67.28;99502.84;5003142;28;4448;-83
2023/03/26 10:47:11;;;;;;;;;;;;;;;4.90;67.27;99501.19;5018075;28;4903;-83
2023/03/26 10:49:38;;;;;;;;;;;;;;;4.91;67.23;99502.84;5023482;28;4687;-84
2023/03/26 10:52:05;;;;;;;;;;;;;;;4.91;67.30;99496.66;4999135;28;4483;-84
2023/03/26 10:54:31;;;;;;;;;;;;;;;4.90;67.40;99514.53;5019633;28;4473;-84
2023/03/26 10:56:58;;;;;;;;;;;;;;;4.98;67.14;99502.84;4998795;28;4794;-86
2023/03/26 10:59:24;;;;;;;;;;;;;;;4.97;66.91;99509.19;5002040;28;4975;-86
2023/03/26 11:01:51;;;;;;;;;;;;;;;4.97;67.09;99499.34;5017398;28;4358;-86
2023/03/26 11:04:18;;;;;;;;;;;;;;;4.94;67.43;99506.94;5003631;28;4734;-86
2023/03/26 11:06:44;;;;;;;;;;;;;;;4.93;67.39;99508.78;5004162;28;4349;-86
2023/03/26 11:09:11;;;;;;;;;;;;;;;4.96;67.27;99507.53;4999096;28;4780;-85
2023/03/26 11:11:38;;;;;;;;;;;;;;;4.99;67.32;99499.13;4997896;28;4840;-85
2023/03/26 11:14:05;;;;;;;;;;;;;;;4.96;67.25;99499.53;5006258;28;4348;-87
2023/03/26 11:16:32;;;;;;;;;;;;;;;4.95;67.65;99495.25;5021442;28;1922;-89
2023/03/26 11:19:01;;;;;;;;;;;;;;;4.99;67.36;99493.78;5007638;28;2132;-85
2023/03/26 11:21:28;;;;;;;;;;;;;;;4.97;67.40;99491.34;5015663;28;1836;-84
2023/03/26 11:23:55;;;;;;;;;;;;;;;4.97;67.32;99506.50;5003247;28;3756;-82
2023/03/26 11:26:21;;;;;;;;;;;;;;;4.94;67.56;99507.78;5017208;28;4468;-83
2023/03/26 11:28:48;;;;;;;;;;;;;;;5.00;67.29;99504.28;5016035;28;4558;-82
2023/03/26 11:31:15;;;;;;;;;;;;;;;5.02;67.31;99501.38;4999345;28;4280;-82
2023/03/26 11:33:41;;;;;;;;;;;;;;;5.00;67.52;99511.47;5017101;28;4818;-81
2023/03/26 11:36:08;;;;;;;;;;;;;;;4.99;67.49;99512.47;5018596;28;4415;-82
2023/03/26 11:38:36;;;;;;;;;;;;;;;4.98;67.49;99500.97;4997774;28;4462;-83
2023/03/26 11:41:03;;;;;;;;;;;;;;;5.05;67.28;99508.97;5015269;28;4717;-83
2023/03/26 11:43:30;;;;;;;;;;;;;;;5.01;67.53;99507.75;5015406;28;4708;-83
2023/03/26 11:45:56;;;;;;;;;;;;;;;5.03;67.52;99512.88;5017045;28;4867;-82
2023/03/26 11:48:23;;;;;;;;;;;;;;;5.02;67.32;99509.38;5019610;28;1638;-82
2023/03/26 11:50:50;;;;;;;;;;;;;;;5.05;67.52;99516.97;5017258;28;2102;-82
2023/03/26 11:53:18;;;;;;;;;;;;;;;5.06;67.56;99515.13;5019679;28;1574;-82
2023/03/26 11:55:45;;;;;;;;;;;;;;;5.07;67.62;99512.25;5004126;28;1287;-82
2023/03/26 11:58:12;;;;;;;;;;;;;;;5.06;67.55;99523.13;5020951;28;2108;-82
2023/03/26 12:00:39;;;;;;;;;;;;;;;5.06;67.61;99515.97;5015267;28;4955;-81
2023/03/26 12:03:05;;;;;;;;;;;;;;;5.05;67.69;99516.97;5017774;28;4927;-81
2023/03/26 12:05:35;;;;;;;;;;;;;;;5.09;67.63;99522.69;5001204;28;5054;-81
2023/03/26 12:08:02;;;;;;;;;;;;;;;5.11;67.46;99524.13;5002019;28;4651;-82
2023/03/26 12:10:28;;;;;;;;;;;;;;;5.12;67.65;99530.31;5012436;28;4673;-82
2023/03/26 12:12:55;;;;;;;;;;;;;;;5.12;67.66;99531.13;4996286;28;4836;-81
2023/03/26 12:15:21;;;;;;;;;;;;;;;5.11;67.54;99526.00;4998992;28;4888;-80
2023/03/26 12:17:50;;;;;;;;;;;;;;;5.14;67.58;99528.25;4989085;28;4638;-81
2023/03/26 12:20:18;;;;;;;;;;;;;;;4.57;67.68;99436.44;5002391;28;4200;-81
2023/03/26 12:22:45;;;;;;;;;;;;;;;5.16;67.61;99523.53;5000079;28;4305;-80
2023/03/26 12:25:12;;;;;;;;;;;;;;;5.16;67.73;99526.19;4998244;28;4481;-79
2023/03/26 12:27:40;;;;;;;;;;;;;;;5.20;67.54;99528.22;4997999;28;4290;-80
2023/03/26 12:30:07;;;;;;;;;;;;;;;5.19;67.68;99531.13;4998799;28;4732;-78
2023/03/26 12:32:34;;;;;;;;;;;;;;;5.17;67.75;99528.63;5008836;28;4959;-79
2023/03/26 12:35:01;;;;;;;;;;;;;;;5.18;67.92;99529.47;5006816;28;4769;-84
2023/03/26 12:37:29;;;;;;;;;;;;;;;5.20;67.70;99528.22;4977818;28;4806;-79
2023/03/26 12:39:55;;;;;;;;;;;;;;;5.19;67.68;99534.59;5004863;28;4501;-78
2023/03/26 12:42:22;;;;;;;;;;;;;;;4.63;67.71;99438.25;5013858;28;4279;-80
2023/03/26 12:44:48;;;;;;;;;;;;;;;5.21;67.78;99532.53;5013654;28;4915;-79
2023/03/26 12:47:15;;;;;;;;;;;;;;;5.27;67.51;99528.22;5014319;28;4543;-78
2023/03/26 12:49:41;;;;;;;;;;;;;;;5.23;67.83;99529.66;4991019;28;4714;-79
2023/03/26 12:52:09;;;;;;;;;;;;;;;5.23;67.63;99519.81;5011698;28;4483;-80
2023/03/26 12:54:36;;;;;;;;;;;;;;;5.24;67.85;99533.97;4999863;28;4859;-80
2023/03/26 12:57:03;;;;;;;;;;;;;;;5.27;67.63;99530.06;4997849;28;4814;-80
2023/03/26 12:59:30;;;;;;;;;;;;;;;5.22;67.79;99538.69;4999423;28;4563;-81
2023/03/26 13:01:56;;;;;;;;;;;;;;;5.26;67.86;99526.56;5014525;28;4484;-80
2023/03/26 13:04:23;;;;;;;;;;;;;;;5.30;67.74;99527.81;4996891;28;4332;-80
2023/03/26 13:06:52;;;;;;;;;;;;;;;5.27;67.82;99530.88;4973957;28;4600;-80
2023/03/26 13:09:21;;;;;;;;;;;;;;;5.28;67.75;99529.84;5010686;28;4697;-80
2023/03/26 13:11:48;;;;;;;;;;;;;;;5.33;67.68;99521.22;4994941;28;4746;-80